createdAt,value
2022-09-24T00:01:34.674Z,8.94
2022-09-24T00:04:03.038Z,8.80
2022-09-24T00:06:33.673Z,8.77
2022-09-24T00:09:00.268Z,8.70
2022-09-24T00:11:28.743Z,8.66
2022-09-24T00:13:57.067Z,8.61
2022-09-24T00:16:25.831Z,8.61
2022-09-24T00:18:54.032Z,8.58
2022-09-24T00:21:24.118Z,8.54
2022-09-24T00:23:53.527Z,8.50
2022-09-24T00:26:39.869Z,8.46
2022-09-24T00:29:08.201Z,8.39
2022-09-24T00:31:34.993Z,8.35
2022-09-24T00:34:02.049Z,8.30
2022-09-24T00:36:28.954Z,8.26
2022-09-24T00:38:58.052Z,8.21
2022-09-24T00:41:28.978Z,8.17
2022-09-24T00:43:55.945Z,8.13
2022-09-24T00:46:44.159Z,8.08
2022-09-24T00:49:13.570Z,8.04
2022-09-24T00:51:42.698Z,8.00
2022-09-24T00:54:14.795Z,7.93
2022-09-24T00:56:44.356Z,7.91
2022-09-24T00:59:16.976Z,7.83
2022-09-24T01:01:46.530Z,7.78
2022-09-24T01:04:13.900Z,7.74
2022-09-24T01:06:40.739Z,7.71
2022-09-24T01:09:08.543Z,7.69
2022-09-24T01:11:46.417Z,7.67
2022-09-24T01:14:21.685Z,7.64
2022-09-24T01:17:01.191Z,7.62
2022-09-24T01:19:46.396Z,7.55
2022-09-24T01:22:23.758Z,7.57
2022-09-24T01:24:56.681Z,7.57
2022-09-24T01:27:46.227Z,7.49
2022-09-24T01:30:15.284Z,7.38
2022-09-24T01:32:55.584Z,7.35
2022-09-24T01:35:34.404Z,7.34
2022-09-24T01:38:06.878Z,7.27
2022-09-24T01:40:34.369Z,7.25
2022-09-24T01:43:04.431Z,7.22
2022-09-24T01:45:32.593Z,7.18
2022-09-24T01:48:03.227Z,7.17
2022-09-24T01:50:33.450Z,7.15
2022-09-24T01:53:06.644Z,7.11
2022-09-24T01:55:38.496Z,7.06
2022-09-24T01:58:12.049Z,7.05
2022-09-24T02:00:44.223Z,7.05
2022-09-24T02:03:27.240Z,7.04
2022-09-24T02:06:08.673Z,7.02
2022-09-24T02:08:41.105Z,7.00
2022-09-24T02:11:14.809Z,7.02
2022-09-24T02:13:47.879Z,6.98
2022-09-24T02:16:18.517Z,6.94
2022-09-24T02:18:48.704Z,6.93
2022-09-24T02:21:16.931Z,6.91
2022-09-24T02:23:50.674Z,6.89
2022-09-24T02:26:17.479Z,6.89
2022-09-24T02:28:44.124Z,6.86
2022-09-24T02:31:14.762Z,6.85
2022-09-24T02:34:07.631Z,6.81
2022-09-24T02:36:35.152Z,6.82
2022-09-24T02:39:03.120Z,6.78
2022-09-24T02:41:30.998Z,6.77
2022-09-24T02:43:58.320Z,6.77
2022-09-24T02:46:25.040Z,6.77
2022-09-24T02:48:51.596Z,6.75
2022-09-24T02:51:18.177Z,6.75
2022-09-24T02:53:44.706Z,6.74
2022-09-24T02:56:11.285Z,6.73
2022-09-24T02:58:37.876Z,6.71
2022-09-24T03:01:05.799Z,6.72
2022-09-24T03:03:32.713Z,6.73
2022-09-24T03:05:59.565Z,6.73
2022-09-24T03:08:26.291Z,6.73
2022-09-24T03:10:52.886Z,6.70
2022-09-24T03:13:19.624Z,6.70
2022-09-24T03:15:46.716Z,6.68
2022-09-24T03:18:14.557Z,6.68
2022-09-24T03:20:41.607Z,6.68
2022-09-24T03:23:08.332Z,6.67
2022-09-24T03:25:34.872Z,6.68
2022-09-24T03:28:01.699Z,6.67
2022-09-24T03:30:46.752Z,6.69
2022-09-24T03:33:13.891Z,6.68
2022-09-24T03:35:40.516Z,6.69
2022-09-24T03:38:07.131Z,6.70
2022-09-24T03:40:33.991Z,6.70
2022-09-24T03:43:00.666Z,6.69
2022-09-24T03:45:27.230Z,6.68
2022-09-24T03:47:53.827Z,6.68
2022-09-24T03:50:20.363Z,6.68
2022-09-24T03:52:46.945Z,6.68
2022-09-24T03:55:13.500Z,6.68
2022-09-24T03:57:40.122Z,6.68
2022-09-24T04:00:07.161Z,6.69
2022-09-24T04:02:33.819Z,6.72
2022-09-24T04:05:00.416Z,6.74
2022-09-24T04:07:27.029Z,6.72
2022-09-24T04:09:53.555Z,6.70
2022-09-24T04:12:20.695Z,6.72
2022-09-24T04:14:47.297Z,6.72
2022-09-24T04:17:15.013Z,6.73
2022-09-24T04:19:41.601Z,6.73
2022-09-24T04:22:08.447Z,6.75
2022-09-24T04:24:34.986Z,6.76
2022-09-24T04:27:01.650Z,6.76
2022-09-24T04:29:28.258Z,6.76
2022-09-24T04:31:54.985Z,6.74
2022-09-24T04:34:21.604Z,6.72
2022-09-24T04:36:48.180Z,6.71
2022-09-24T04:39:15.692Z,6.73
2022-09-24T04:41:42.305Z,6.71
2022-09-24T04:44:08.961Z,6.71
2022-09-24T04:46:35.601Z,6.71
2022-09-24T04:49:02.239Z,6.73
2022-09-24T04:51:28.857Z,6.73
2022-09-24T04:53:55.464Z,6.72
2022-09-24T04:56:22.213Z,6.74
2022-09-24T04:58:51.839Z,6.74
2022-09-24T05:01:20.396Z,6.73
2022-09-24T05:03:47.024Z,6.73
2022-09-24T05:06:13.788Z,6.75
2022-09-24T05:08:40.433Z,6.75
2022-09-24T05:11:07.743Z,6.73
2022-09-24T05:13:35.895Z,6.70
2022-09-24T05:16:03.539Z,6.67
2022-09-24T05:18:30.287Z,6.70
2022-09-24T05:20:56.867Z,6.71
2022-09-24T05:23:23.417Z,6.69
2022-09-24T05:26:08.490Z,6.71
2022-09-24T07:25:58.534Z,8.45
2022-09-24T07:28:25.347Z,8.67
2022-09-24T07:31:00.049Z,8.90
2022-09-24T07:33:26.801Z,9.17
2022-09-24T07:35:53.462Z,9.40
2022-09-24T07:38:19.996Z,9.54
2022-09-24T07:40:46.656Z,9.66
2022-09-24T07:43:14.276Z,9.84
2022-09-24T07:45:42.221Z,9.98
2022-09-24T07:48:10.579Z,10.15
2022-09-24T07:50:41.514Z,10.24
2022-09-24T07:53:10.957Z,10.31
2022-09-24T07:55:40.593Z,10.35
2022-09-24T07:58:14.461Z,10.36
2022-09-24T08:00:41.253Z,10.36
2022-09-24T08:03:07.883Z,10.36
2022-09-24T08:05:34.680Z,10.42
2022-09-24T08:08:01.518Z,10.50
2022-09-24T08:10:28.627Z,10.58
2022-09-24T08:12:57.108Z,10.64
2022-09-24T08:15:23.730Z,10.70
2022-09-24T08:17:50.698Z,10.73
2022-09-24T08:20:17.417Z,10.77
2022-09-24T08:22:44.032Z,10.84
2022-09-24T08:25:10.909Z,10.97
2022-09-24T08:27:37.612Z,11.07
2022-09-24T08:30:05.828Z,11.19
2022-09-24T08:32:32.666Z,11.22
2022-09-24T08:34:59.488Z,11.27
2022-09-24T08:37:28.426Z,11.36
2022-09-24T08:39:55.319Z,11.40
2022-09-24T08:42:34.227Z,11.48
2022-09-24T08:45:21.313Z,11.53
2022-09-24T08:47:55.082Z,11.58
2022-09-24T08:50:29.290Z,11.64
2022-09-24T08:53:23.656Z,11.71
2022-09-24T08:55:58.399Z,11.77
2022-09-24T08:58:47.095Z,11.77
2022-09-24T09:01:30.375Z,11.85
2022-09-24T09:04:03.584Z,11.95
2022-09-24T09:06:42.255Z,12.03
2022-09-24T09:09:20.336Z,12.12
2022-09-24T09:11:51.337Z,12.23
2022-09-24T09:14:43.501Z,12.31
2022-09-24T09:17:37.990Z,12.42
2022-09-24T09:20:11.581Z,12.52
2022-09-24T09:22:44.116Z,12.66
2022-09-24T09:25:21.868Z,12.77
2022-09-24T09:28:15.655Z,12.88
2022-09-24T09:31:00.405Z,12.97
2022-09-24T09:33:54.195Z,13.11
2022-09-24T09:36:26.741Z,13.19
2022-09-24T09:39:16.532Z,13.29
2022-09-24T09:42:15.116Z,13.41
2022-09-24T09:44:43.752Z,13.54
2022-09-24T09:47:21.942Z,13.66
2022-09-24T09:49:52.270Z,13.81
2022-09-24T09:52:21.792Z,13.92
2022-09-24T09:54:48.795Z,14.06
2022-09-24T09:57:24.337Z,14.21
2022-09-24T09:59:53.432Z,14.37
2022-09-24T10:02:28.302Z,14.55
2022-09-24T10:04:57.901Z,14.72
2022-09-24T10:07:24.419Z,14.86
2022-09-24T10:10:17.351Z,14.94
2022-09-24T10:12:43.881Z,15.13
2022-09-24T10:15:22.393Z,15.22
2022-09-24T10:17:52.487Z,15.40
2022-09-24T10:20:27.553Z,15.48
2022-09-24T10:23:01.184Z,15.63
2022-09-24T10:25:30.462Z,15.76
2022-09-24T10:28:21.888Z,15.84
2022-09-24T10:31:00.401Z,15.94
2022-09-24T10:33:35.808Z,16.04
2022-09-24T10:36:08.512Z,16.21
2022-09-24T10:38:35.250Z,16.36
2022-09-24T10:41:02.121Z,16.32
2022-09-24T10:43:29.012Z,16.38
2022-09-24T10:46:08.330Z,16.47
2022-09-24T10:49:01.109Z,16.42
2022-09-24T10:51:46.765Z,16.51
2022-09-24T10:54:37.695Z,16.59
2022-09-24T10:57:28.636Z,16.60
2022-09-24T11:00:07.975Z,16.72
2022-09-24T11:02:34.458Z,16.74
2022-09-24T11:05:45.149Z,16.83
2022-09-24T11:08:30.707Z,16.94
2022-09-24T11:11:16.100Z,17.03
2022-09-24T11:14:00.049Z,17.12
2022-09-24T11:16:45.432Z,17.11
2022-09-24T11:19:27.115Z,17.20
2022-09-24T11:22:08.943Z,17.31
2022-09-24T11:24:46.139Z,17.44
2022-09-24T11:27:24.804Z,17.35
2022-09-24T11:30:18.735Z,17.50
2022-09-24T11:33:06.479Z,17.63
2022-09-24T11:35:55.700Z,17.68
2022-09-24T11:38:41.577Z,17.84
2022-09-24T11:41:12.906Z,17.92
2022-09-24T11:44:01.255Z,17.96
2022-09-24T11:46:38.419Z,17.93
2022-09-24T11:49:32.941Z,18.08
2022-09-24T11:52:38.088Z,18.10
2022-09-24T11:55:15.424Z,18.09
2022-09-24T11:58:10.671Z,17.88
2022-09-24T12:00:44.125Z,18.06
2022-09-24T12:04:02.565Z,18.12
2022-09-24T12:06:42.258Z,18.22
2022-09-24T12:09:23.386Z,18.20
2022-09-24T12:12:06.242Z,18.30
2022-09-24T12:15:01.776Z,18.28
2022-09-24T12:17:49.045Z,18.30
2022-09-24T12:20:21.582Z,18.43
2022-09-24T12:23:08.034Z,18.28
2022-09-24T12:25:41.105Z,18.56
2022-09-24T12:28:12.172Z,18.99
2022-09-24T12:31:12.024Z,19.31
2022-09-24T12:33:58.031Z,19.54
2022-09-24T12:36:32.060Z,19.85
2022-09-24T12:39:10.761Z,20.06
2022-09-24T12:41:43.931Z,20.17
2022-09-24T12:44:10.561Z,20.24
2022-09-24T12:46:46.069Z,19.83
2022-09-24T12:49:24.909Z,19.91
2022-09-24T12:51:57.188Z,20.07
2022-09-24T12:54:29.563Z,20.09
2022-09-24T12:57:25.345Z,19.96
2022-09-24T12:59:58.065Z,19.91
2022-09-24T13:02:44.036Z,19.94
2022-09-24T13:05:40.859Z,20.10
2022-09-24T13:08:07.392Z,20.37
2022-09-24T13:10:36.569Z,20.54
2022-09-24T13:13:15.973Z,20.51
2022-09-24T13:15:42.824Z,20.61
2022-09-24T13:18:10.184Z,20.81
2022-09-24T13:20:40.190Z,20.56
2022-09-24T13:23:43.187Z,20.34
2022-09-24T13:26:14.039Z,20.33
2022-09-24T13:29:00.970Z,20.42
2022-09-24T13:31:27.528Z,20.05
2022-09-24T13:34:17.439Z,20.00
2022-09-24T13:37:02.411Z,19.74
2022-09-24T13:39:50.555Z,19.87
2022-09-24T13:42:24.556Z,20.01
2022-09-24T13:45:11.913Z,20.13
2022-09-24T13:47:50.705Z,19.88
2022-09-24T13:50:22.675Z,19.77
2022-09-24T13:53:02.663Z,20.01
2022-09-24T13:55:31.466Z,20.10
2022-09-24T13:57:58.184Z,20.14
2022-09-24T14:00:27.690Z,20.05
2022-09-24T14:03:04.489Z,20.28
2022-09-24T14:05:37.005Z,20.68
2022-09-24T14:08:12.672Z,20.97
2022-09-24T14:10:40.455Z,20.85
2022-09-24T14:13:17.673Z,20.66
2022-09-24T14:15:54.977Z,20.40
2022-09-24T14:18:22.410Z,20.59
2022-09-24T14:21:07.449Z,20.66
2022-09-24T14:23:42.148Z,20.45
2022-09-24T14:26:22.916Z,20.48
2022-09-24T14:28:49.763Z,20.31
2022-09-24T14:31:16.887Z,20.61
2022-09-24T14:33:43.675Z,20.85
2022-09-24T14:36:14.607Z,20.87
2022-09-24T14:38:58.064Z,20.47
2022-09-24T14:41:33.236Z,20.59
2022-09-24T14:44:12.512Z,20.30
2022-09-24T14:46:48.793Z,20.33
2022-09-24T14:49:22.326Z,20.38
2022-09-24T14:51:51.920Z,20.43
2022-09-24T14:54:35.477Z,20.57
2022-09-24T14:57:17.191Z,20.52
2022-09-24T14:59:44.951Z,20.65
2022-09-24T15:02:22.727Z,20.25
2022-09-24T15:04:59.707Z,20.23
2022-09-24T15:07:29.832Z,20.08
2022-09-24T15:09:59.670Z,20.14
2022-09-24T15:12:31.087Z,20.19
2022-09-24T15:15:25.488Z,20.09
2022-09-24T15:17:52.107Z,19.92
2022-09-24T15:20:18.652Z,19.83
2022-09-24T15:22:47.061Z,19.82
2022-09-24T15:25:14.688Z,19.95
2022-09-24T15:27:44.801Z,19.98
2022-09-24T15:30:17.727Z,19.90
2022-09-24T15:32:44.295Z,19.77
2022-09-24T15:35:15.013Z,19.56
2022-09-24T15:37:42.263Z,19.30
2022-09-24T15:40:15.850Z,19.26
2022-09-24T15:42:42.508Z,19.15
2022-09-24T15:45:16.409Z,19.02
2022-09-24T15:47:43.031Z,18.96
2022-09-24T15:50:11.036Z,18.94
2022-09-24T15:52:44.661Z,18.85
2022-09-24T15:55:17.357Z,18.75
2022-09-24T15:57:44.616Z,18.64
2022-09-24T16:00:20.380Z,18.54
2022-09-24T16:02:52.901Z,18.45
2022-09-24T16:05:19.972Z,18.40
2022-09-24T16:07:47.035Z,18.33
2022-09-24T16:10:14.916Z,18.20
2022-09-24T16:12:42.870Z,18.16
2022-09-24T16:15:14.365Z,18.01
2022-09-24T16:17:41.156Z,17.93
2022-09-24T16:20:09.731Z,17.89
2022-09-24T16:22:36.317Z,17.77
2022-09-24T16:25:03.109Z,17.71
2022-09-24T16:27:29.855Z,17.68
2022-09-24T16:29:56.439Z,17.64
2022-09-24T16:32:23.036Z,17.58
2022-09-24T16:34:49.644Z,17.52
2022-09-24T16:37:18.397Z,17.40
2022-09-24T16:39:45.046Z,17.26
2022-09-24T16:42:11.643Z,17.14
2022-09-24T16:44:38.252Z,17.04
2022-09-24T16:47:04.896Z,17.00
2022-09-24T16:49:31.561Z,16.99
2022-09-24T16:51:58.097Z,16.91
2022-09-24T16:54:25.386Z,16.84
2022-09-24T16:56:52.282Z,16.77
2022-09-24T16:59:19.137Z,16.72
2022-09-24T17:01:45.788Z,16.69
2022-09-24T17:04:12.588Z,16.60
2022-09-24T17:06:39.378Z,16.49
2022-09-24T17:09:25.239Z,16.47
2022-09-24T17:11:51.856Z,16.37
2022-09-24T17:14:18.836Z,16.32
2022-09-24T17:16:45.724Z,16.27
2022-09-24T17:19:12.911Z,16.23
2022-09-24T17:21:42.397Z,16.14
2022-09-24T17:24:09.681Z,15.92
2022-09-24T17:26:37.673Z,15.88
2022-09-24T17:29:04.540Z,15.79
2022-09-24T17:31:31.770Z,15.72
2022-09-24T17:34:00.757Z,15.67
2022-09-24T17:36:29.087Z,15.60
2022-09-24T17:38:57.012Z,15.53
2022-09-24T17:41:23.816Z,15.48
2022-09-24T17:43:51.663Z,15.44
2022-09-24T17:46:23.085Z,15.36
2022-09-24T17:48:52.592Z,15.30
2022-09-24T17:51:20.362Z,15.19
2022-09-24T17:53:47.313Z,15.13
2022-09-24T17:56:15.186Z,15.09
2022-09-24T17:58:44.472Z,14.99
2022-09-24T18:01:13.514Z,14.93
2022-09-24T18:03:40.948Z,14.89
2022-09-24T18:06:10.846Z,14.86
2022-09-24T18:08:42.992Z,14.79
2022-09-24T18:11:16.153Z,14.74
2022-09-24T18:13:42.958Z,14.71
2022-09-24T18:16:15.000Z,14.65
2022-09-24T18:18:42.858Z,14.61
2022-09-24T18:21:13.254Z,14.56
2022-09-24T18:23:40.729Z,14.49
2022-09-24T18:26:24.505Z,14.43
2022-09-24T18:28:57.881Z,14.41
2022-09-24T18:31:28.222Z,14.42
2022-09-24T18:33:56.820Z,14.41
2022-09-24T18:36:25.878Z,14.38
2022-09-24T18:38:53.153Z,14.33
2022-09-24T18:41:23.094Z,14.30
2022-09-24T18:43:51.222Z,14.25
2022-09-24T18:46:19.603Z,14.23
2022-09-24T18:48:49.766Z,14.19
2022-09-24T18:51:18.410Z,14.16
2022-09-24T18:53:50.093Z,14.10
2022-09-24T18:56:16.656Z,14.03
2022-09-24T18:58:43.559Z,13.98
2022-09-24T19:01:10.348Z,13.95
2022-09-24T19:03:39.620Z,13.91
2022-09-24T19:06:08.163Z,13.84
2022-09-24T19:08:35.422Z,13.79
2022-09-24T19:11:11.051Z,13.76
2022-09-24T19:13:39.163Z,13.73
2022-09-24T19:16:09.137Z,13.68
2022-09-24T19:18:36.795Z,13.62
2022-09-24T19:21:08.176Z,13.58
2022-09-24T19:23:44.546Z,13.55
2022-09-24T19:26:13.263Z,13.50
2022-09-24T19:28:41.671Z,13.46
2022-09-24T19:31:19.114Z,13.40
2022-09-24T19:33:47.000Z,13.37
2022-09-24T19:36:13.862Z,13.33
2022-09-24T19:38:41.679Z,13.29
2022-09-24T19:41:21.261Z,13.24
2022-09-24T19:43:49.453Z,13.18
2022-09-24T19:46:17.268Z,13.14
2022-09-24T19:48:45.944Z,13.10
2022-09-24T19:51:15.662Z,13.03
2022-09-24T19:53:43.679Z,13.03
2022-09-24T19:56:11.455Z,12.94
2022-09-24T19:58:38.200Z,12.88
2022-09-24T20:01:06.944Z,12.84
2022-09-24T20:03:35.203Z,12.77
2022-09-24T20:06:07.781Z,12.72
2022-09-24T20:08:34.563Z,12.67
2022-09-24T20:11:06.320Z,12.62
2022-09-24T20:13:33.831Z,12.60
2022-09-24T20:16:02.900Z,12.56
2022-09-24T20:18:33.035Z,12.52
2022-09-24T20:21:05.207Z,12.49
2022-09-24T20:23:32.154Z,12.47
2022-09-24T20:26:17.331Z,12.49
2022-09-24T20:28:44.134Z,12.47
2022-09-24T20:31:12.648Z,12.46
2022-09-24T20:33:42.521Z,12.44
2022-09-24T20:36:16.505Z,12.39
2022-09-24T20:38:47.359Z,12.42
2022-09-24T20:41:20.221Z,12.42
2022-09-24T20:43:47.084Z,12.42
2022-09-24T20:46:26.494Z,12.43
2022-09-24T20:48:53.979Z,12.38
2022-09-24T20:51:21.817Z,12.37
2022-09-24T20:53:49.689Z,12.37
2022-09-24T20:56:18.019Z,12.36
2022-09-24T20:58:45.358Z,12.37
2022-09-24T21:01:12.157Z,12.39
2022-09-24T21:03:44.484Z,12.39
2022-09-24T21:06:12.600Z,12.38
2022-09-24T21:08:41.491Z,12.38
2022-09-24T21:11:10.682Z,12.37
2022-09-24T21:13:42.465Z,12.35
2022-09-24T21:16:10.179Z,12.32
2022-09-24T21:18:40.346Z,12.31
2022-09-24T21:21:15.458Z,12.32
2022-09-24T21:23:47.854Z,12.31
2022-09-24T21:26:24.528Z,12.33
2022-09-24T21:28:53.866Z,12.30
2022-09-24T21:31:26.692Z,12.32
2022-09-24T21:33:53.715Z,12.31
2022-09-24T21:36:26.559Z,12.30
2022-09-24T21:39:01.523Z,12.26
2022-09-24T21:41:31.411Z,12.24
2022-09-24T21:43:58.560Z,12.26
2022-09-24T21:46:26.699Z,12.26
2022-09-24T21:48:54.082Z,12.28
2022-09-24T21:51:22.209Z,12.26
2022-09-24T21:53:50.414Z,12.25
2022-09-24T21:56:18.931Z,12.25
2022-09-24T21:58:50.213Z,12.24
2022-09-24T22:01:19.880Z,12.21
2022-09-24T22:03:47.439Z,12.21
2022-09-24T22:06:15.167Z,12.22
2022-09-24T22:08:41.816Z,12.21
2022-09-24T22:11:10.188Z,12.20
2022-09-24T22:13:38.339Z,12.18
2022-09-24T22:16:11.479Z,12.09
2022-09-24T22:18:38.749Z,12.08
2022-09-24T22:21:11.407Z,12.07
2022-09-24T22:23:38.657Z,12.07
2022-09-24T22:26:06.086Z,12.08
2022-09-24T22:28:32.931Z,12.08
2022-09-24T22:31:04.355Z,12.07
2022-09-24T22:33:50.391Z,12.04
2022-09-24T22:36:17.119Z,12.02
2022-09-24T22:38:43.873Z,12.00
2022-09-24T22:41:12.111Z,11.97
2022-09-24T22:43:39.604Z,11.98
2022-09-24T22:46:12.358Z,11.98
2022-09-24T22:48:39.973Z,11.98
2022-09-24T22:51:08.039Z,11.98
2022-09-24T22:53:38.649Z,11.97
2022-09-24T22:56:06.654Z,11.95
2022-09-24T22:58:34.620Z,11.94
2022-09-24T23:01:20.134Z,11.91
2022-09-24T23:03:46.773Z,11.90
2022-09-24T23:06:13.438Z,11.90
2022-09-24T23:08:41.191Z,11.84
2022-09-24T23:11:21.351Z,11.82
2022-09-24T23:13:53.057Z,11.79
2022-09-24T23:16:22.345Z,11.72
2022-09-24T23:18:52.483Z,11.66
2022-09-24T23:21:20.041Z,11.60
2022-09-24T23:23:47.224Z,11.54
2022-09-24T23:26:17.187Z,11.48
2022-09-24T23:28:52.931Z,11.41
2022-09-24T23:31:22.401Z,11.37
2022-09-24T23:33:50.013Z,11.35
2022-09-24T23:36:19.527Z,11.38
2022-09-24T23:38:46.099Z,11.31
2022-09-24T23:41:13.710Z,11.23
2022-09-24T23:43:41.643Z,11.21
2022-09-24T23:46:10.224Z,11.16
2022-09-24T23:48:37.544Z,11.10
2022-09-24T23:51:05.027Z,11.05
2022-09-24T23:53:33.811Z,11.01
2022-09-24T23:56:01.467Z,10.95
2022-09-24T23:58:28.706Z,10.89
